createdAt,value
2019-02-21T00:01:02.722Z,21.07
2019-02-21T00:03:32.454Z,21.52
2019-02-21T00:06:02.019Z,20.25
2019-02-21T00:08:31.468Z,21.45
2019-02-21T00:11:00.915Z,20.48
2019-02-21T00:13:30.377Z,21.05
2019-02-21T00:15:59.747Z,22.22
2019-02-21T00:18:29.866Z,21.33
2019-02-21T00:20:59.361Z,22.37
2019-02-21T00:23:29.828Z,22.55
2019-02-21T00:25:59.257Z,22.67
2019-02-21T00:28:28.661Z,22.90
2019-02-21T00:30:58.075Z,23.67
2019-02-21T00:33:27.688Z,23.40
2019-02-21T00:35:57.127Z,22.13
2019-02-21T00:38:26.609Z,24.45
2019-02-21T00:40:56.017Z,24.60
2019-02-21T00:43:25.416Z,24.02
2019-02-21T00:45:54.995Z,23.75
2019-02-21T00:48:24.522Z,24.70
2019-02-21T00:50:53.936Z,25.45
2019-02-21T00:53:23.366Z,25.72
2019-02-21T00:55:53.004Z,26.65
2019-02-21T00:58:22.566Z,26.20
2019-02-21T01:00:51.989Z,27.62
2019-02-21T01:03:21.413Z,27.40
2019-02-21T01:05:50.905Z,27.35
2019-02-21T01:08:20.376Z,27.27
2019-02-21T01:10:49.779Z,27.32
2019-02-21T01:13:19.181Z,28.15
2019-02-21T01:15:48.607Z,26.48
2019-02-21T01:18:18.011Z,28.60
2019-02-21T01:20:47.413Z,26.90
2019-02-21T01:23:16.872Z,28.05
2019-02-21T01:25:46.283Z,28.40
2019-02-21T01:28:15.671Z,28.35
2019-02-21T01:30:45.103Z,28.85
2019-02-21T01:33:14.541Z,30.40
2019-02-21T01:35:43.944Z,30.00
2019-02-21T01:38:13.356Z,29.67
2019-02-21T01:40:42.760Z,28.38
2019-02-21T01:43:12.184Z,31.93
2019-02-21T01:45:41.587Z,31.30
2019-02-21T01:48:11.318Z,31.15
2019-02-21T01:50:40.707Z,31.33
2019-02-21T01:53:10.120Z,31.02
2019-02-21T01:55:39.526Z,33.73
2019-02-21T01:58:08.949Z,32.83
2019-02-21T02:00:38.342Z,33.98
2019-02-21T02:03:07.747Z,34.67
2019-02-21T02:05:37.216Z,34.35
2019-02-21T02:08:06.628Z,34.67
2019-02-21T02:10:36.057Z,35.28
2019-02-21T02:13:05.488Z,35.60
2019-02-21T02:15:34.900Z,34.27
2019-02-21T02:18:04.293Z,37.30
2019-02-21T02:20:33.723Z,37.93
2019-02-21T02:23:03.133Z,35.43
2019-02-21T02:25:32.549Z,36.55
2019-02-21T02:28:01.958Z,38.15
2019-02-21T02:30:31.366Z,36.85
2019-02-21T02:33:00.753Z,38.25
2019-02-21T02:35:30.158Z,37.13
2019-02-21T02:37:59.555Z,38.35
2019-02-21T02:40:28.966Z,38.02
2019-02-21T02:42:58.367Z,37.17
2019-02-21T02:45:27.782Z,39.75
2019-02-21T02:47:57.168Z,40.28
2019-02-21T02:50:26.575Z,39.55
2019-02-21T02:52:55.979Z,39.18
2019-02-21T02:55:25.414Z,38.92
2019-02-21T02:57:54.807Z,37.83
2019-02-21T03:00:24.218Z,38.92
2019-02-21T03:02:53.651Z,37.35
2019-02-21T03:05:23.076Z,37.60
2019-02-21T03:07:52.507Z,38.55
2019-02-21T03:10:21.881Z,37.67
2019-02-21T03:16:39.780Z,38.38
2019-02-21T03:19:09.189Z,37.30
2019-02-21T03:21:38.654Z,37.50
2019-02-21T03:24:08.083Z,36.68
2019-02-21T03:26:37.543Z,37.88
2019-02-21T03:29:06.963Z,37.88
2019-02-21T03:31:53.513Z,35.83
2019-02-21T03:34:07.465Z,37.90
2019-02-21T03:36:36.890Z,36.48
2019-02-21T03:39:07.499Z,37.70
2019-02-21T03:41:37.000Z,37.58
2019-02-21T03:44:06.449Z,37.17
2019-02-21T03:46:35.897Z,38.63
2019-02-21T03:49:05.345Z,37.15
2019-02-21T03:51:34.832Z,37.50
2019-02-21T03:54:04.270Z,37.55
2019-02-21T03:56:33.695Z,37.05
2019-02-21T03:59:03.130Z,39.05
2019-02-21T04:01:32.544Z,36.17
2019-02-21T04:04:01.980Z,38.30
2019-02-21T04:06:31.390Z,37.25
2019-02-21T04:09:00.888Z,35.75
2019-02-21T04:11:30.255Z,38.02
2019-02-21T04:13:59.704Z,38.00
2019-02-21T04:16:29.116Z,38.35
2019-02-21T04:18:58.548Z,38.75
2019-02-21T04:21:27.963Z,38.35
2019-02-21T04:23:57.433Z,39.30
2019-02-21T04:26:26.861Z,38.30
2019-02-21T04:28:56.280Z,39.20
2019-02-21T04:31:25.711Z,37.30
2019-02-21T04:33:55.166Z,37.55
2019-02-21T04:36:24.575Z,37.75
2019-02-21T04:38:54.004Z,38.15
2019-02-21T04:41:23.464Z,38.98
2019-02-21T04:43:52.903Z,37.80
2019-02-21T04:46:22.316Z,38.42
2019-02-21T04:48:51.764Z,37.58
2019-02-21T04:51:21.215Z,39.03
2019-02-21T04:53:50.644Z,37.88
2019-02-21T04:56:20.102Z,37.58
2019-02-21T04:58:50.474Z,37.85
2019-02-21T05:01:19.894Z,36.68
2019-02-21T05:03:49.367Z,38.35
2019-02-21T05:06:18.785Z,36.77
2019-02-21T05:08:48.204Z,35.85
2019-02-21T05:11:17.631Z,35.52
2019-02-21T05:13:47.054Z,36.25
2019-02-21T05:16:16.508Z,35.20
2019-02-21T05:18:45.909Z,34.53
2019-02-21T05:21:15.319Z,35.15
2019-02-21T05:23:44.754Z,33.58
2019-02-21T05:26:15.822Z,34.95
2019-02-21T05:28:45.276Z,33.98
2019-02-21T05:31:32.294Z,34.25
2019-02-21T05:34:19.449Z,34.43
2019-02-21T05:36:59.595Z,35.88
2019-02-21T05:39:33.383Z,33.33
2019-02-21T05:42:04.467Z,32.70
2019-02-21T05:44:38.503Z,33.18
2019-02-21T05:47:09.578Z,33.15
2019-02-21T05:49:40.652Z,32.15
2019-02-21T05:52:11.710Z,32.28
2019-02-21T05:55:00.637Z,30.70
2019-02-21T05:57:37.748Z,32.53
2019-02-21T06:00:18.974Z,30.68
2019-02-21T06:02:53.717Z,31.33
2019-02-21T06:05:27.543Z,29.82
2019-02-21T06:08:10.695Z,32.13
2019-02-21T06:10:53.698Z,31.25
2019-02-21T06:13:24.831Z,30.57
2019-02-21T06:15:55.856Z,30.27
2019-02-21T06:18:43.204Z,30.62
2019-02-21T06:21:16.954Z,29.02
2019-02-21T06:23:49.203Z,32.03
2019-02-21T06:26:39.561Z,31.27
2019-02-21T06:29:10.711Z,29.57
2019-02-21T06:31:40.127Z,30.27
2019-02-21T06:34:09.559Z,29.70
2019-02-21T06:36:39.075Z,30.32
2019-02-21T06:39:08.567Z,30.15
2019-02-21T06:41:38.018Z,31.15
2019-02-21T06:44:07.443Z,31.52
2019-02-21T06:46:37.161Z,30.20
2019-02-21T06:49:06.904Z,31.40
2019-02-21T06:51:36.365Z,30.48
2019-02-21T06:54:05.803Z,29.37
2019-02-21T06:56:35.253Z,31.27
2019-02-21T06:59:04.698Z,29.75
2019-02-21T07:01:34.179Z,30.97
2019-02-21T07:04:03.627Z,31.48
2019-02-21T07:06:33.177Z,31.82
2019-02-21T07:09:02.699Z,29.63
2019-02-21T07:11:32.171Z,31.95
2019-02-21T07:14:04.595Z,31.90
2019-02-21T07:16:34.015Z,30.50
2019-02-21T07:19:03.433Z,29.30
2019-02-21T07:21:33.342Z,29.02
2019-02-21T07:24:02.823Z,30.97
2019-02-21T07:26:32.284Z,31.30
2019-02-21T07:29:02.043Z,30.37
2019-02-21T07:31:32.676Z,29.40
2019-02-21T07:34:02.201Z,31.33
2019-02-21T07:36:31.630Z,31.95
2019-02-21T07:39:13.615Z,30.97
2019-02-21T07:41:32.191Z,32.08
2019-02-21T07:44:11.699Z,29.98
2019-02-21T07:46:32.711Z,29.37
2019-02-21T07:49:02.205Z,29.15
2019-02-21T07:51:31.642Z,28.60
2019-02-21T07:54:01.099Z,29.92
2019-02-21T07:56:41.193Z,28.83
2019-02-21T07:59:01.614Z,30.02
2019-02-21T08:01:31.359Z,29.37
2019-02-21T08:04:00.796Z,31.02
2019-02-21T08:06:31.145Z,30.72
2019-02-21T08:09:00.562Z,32.03
2019-02-21T08:11:30.066Z,29.12
2019-02-21T08:13:59.516Z,30.05
2019-02-21T08:16:28.932Z,35.83
2019-02-21T08:18:58.371Z,31.52
2019-02-21T08:21:27.918Z,31.50
2019-02-21T08:23:59.156Z,30.65
2019-02-21T08:26:28.506Z,34.98
2019-02-21T08:28:57.992Z,30.82
2019-02-21T08:31:27.421Z,32.40
2019-02-21T08:34:04.568Z,32.48
2019-02-21T08:36:34.092Z,32.20
2019-02-21T08:39:05.135Z,33.25
2019-02-21T08:41:34.591Z,31.62
2019-02-21T08:44:05.253Z,32.23
2019-02-21T08:46:34.691Z,33.35
2019-02-21T08:49:04.134Z,33.98
2019-02-21T08:51:33.541Z,33.45
2019-02-21T08:54:05.535Z,34.30
2019-02-21T08:56:34.166Z,33.40
2019-02-21T08:59:03.601Z,32.67
2019-02-21T09:01:33.229Z,34.38
2019-02-21T09:04:09.945Z,32.98
2019-02-21T09:06:33.742Z,33.40
2019-02-21T09:09:03.791Z,34.00
2019-02-21T09:11:33.221Z,33.65
2019-02-21T09:14:02.665Z,33.05
2019-02-21T09:16:32.091Z,34.08
2019-02-21T09:19:01.511Z,32.63
2019-02-21T09:21:30.994Z,33.10
2019-02-21T09:24:00.435Z,32.30
2019-02-21T09:26:29.866Z,33.35
2019-02-21T09:28:59.298Z,37.73
2019-02-21T09:31:28.724Z,32.85
2019-02-21T09:33:58.151Z,29.65
2019-02-21T09:36:27.783Z,31.15
2019-02-21T09:38:57.243Z,31.90
2019-02-21T09:41:28.591Z,31.25
2019-02-21T09:43:57.838Z,30.43
2019-02-21T09:46:27.279Z,30.95
2019-02-21T09:48:56.718Z,33.33
2019-02-21T09:51:26.149Z,30.68
2019-02-21T09:53:55.588Z,33.45
2019-02-21T09:56:30.354Z,31.00
2019-02-21T09:58:56.102Z,32.28
2019-02-21T10:01:25.636Z,30.40
2019-02-21T10:03:57.302Z,30.55
2019-02-21T10:06:26.102Z,29.65
2019-02-21T10:08:55.544Z,28.75
2019-02-21T10:11:24.980Z,28.20
2019-02-21T10:13:54.403Z,27.52
2019-02-21T10:16:23.827Z,28.47
2019-02-21T10:18:53.265Z,25.40
2019-02-21T10:21:22.728Z,26.87
2019-02-21T10:23:52.136Z,26.68
2019-02-21T10:26:21.567Z,28.27
2019-02-21T10:28:50.985Z,26.40
2019-02-21T10:31:20.616Z,27.60
2019-02-21T10:33:50.040Z,25.15
2019-02-21T10:36:19.464Z,26.27
2019-02-21T10:38:48.901Z,26.20
2019-02-21T10:41:18.345Z,25.25
2019-02-21T10:43:47.743Z,25.43
2019-02-21T10:46:17.210Z,25.17
2019-02-21T10:48:46.745Z,25.35
2019-02-21T10:51:16.243Z,26.27
2019-02-21T10:53:45.684Z,24.80
2019-02-21T10:56:15.149Z,23.25
2019-02-21T10:58:44.563Z,24.25
2019-02-21T11:01:13.975Z,21.77
2019-02-21T11:03:43.416Z,21.35
2019-02-21T11:06:12.826Z,20.12
2019-02-21T11:08:42.241Z,20.55
2019-02-21T11:11:11.704Z,19.95
2019-02-21T11:13:41.123Z,21.05
2019-02-21T11:16:10.551Z,23.15
2019-02-21T11:18:40.074Z,19.92
2019-02-21T11:21:09.503Z,21.00
2019-02-21T11:23:38.917Z,20.88
2019-02-21T11:26:08.356Z,23.38
2019-02-21T11:28:37.776Z,22.50
2019-02-21T11:31:07.185Z,20.88
2019-02-21T11:33:36.689Z,21.85
2019-02-21T11:36:06.106Z,22.30
2019-02-21T11:38:35.542Z,20.48
2019-02-21T11:41:04.976Z,19.10
2019-02-21T11:43:34.410Z,20.80
2019-02-21T11:46:05.633Z,19.90
2019-02-21T11:48:35.065Z,20.23
2019-02-21T11:51:06.656Z,19.50
2019-02-21T11:53:38.008Z,20.35
2019-02-21T11:56:06.657Z,20.57
2019-02-21T11:58:36.088Z,20.70
2019-02-21T12:01:06.471Z,20.60
2019-02-21T12:03:35.923Z,20.32
2019-02-21T12:06:05.343Z,21.07
2019-02-21T12:08:34.753Z,20.02
2019-02-21T12:11:04.185Z,19.80
2019-02-21T12:13:33.609Z,20.72
2019-02-21T12:16:03.027Z,18.57
2019-02-21T12:18:32.490Z,17.77
2019-02-21T12:21:01.915Z,19.12
2019-02-21T12:23:31.370Z,20.45
2019-02-21T12:26:00.840Z,20.02
2019-02-21T12:28:30.326Z,20.43
2019-02-21T12:30:59.831Z,22.13
2019-02-21T12:33:29.251Z,21.93
2019-02-21T12:35:59.500Z,21.90
2019-02-21T12:38:29.112Z,21.30
2019-02-21T12:40:58.558Z,19.12
2019-02-21T12:43:27.967Z,57.23
2019-02-21T12:45:59.408Z,19.30
2019-02-21T12:48:28.831Z,20.23
2019-02-21T12:50:58.360Z,20.25
2019-02-21T12:53:28.328Z,20.70
2019-02-21T12:55:57.718Z,20.35
2019-02-21T12:58:27.234Z,21.48
2019-02-21T13:00:56.668Z,20.75
2019-02-21T13:03:26.128Z,21.12
2019-02-21T13:05:55.725Z,21.33
2019-02-21T13:08:25.138Z,21.30
2019-02-21T13:10:54.590Z,21.68
2019-02-21T13:13:24.268Z,25.12
2019-02-21T13:15:53.931Z,22.65
2019-02-21T13:18:23.425Z,22.25
2019-02-21T13:20:52.865Z,21.35
2019-02-21T13:23:22.299Z,25.35
2019-02-21T13:25:51.733Z,21.52
2019-02-21T13:28:21.158Z,23.83
2019-02-21T13:30:50.608Z,22.82
2019-02-21T13:33:20.040Z,22.85
2019-02-21T13:35:52.642Z,23.30
2019-02-21T13:38:20.503Z,21.85
2019-02-21T13:40:49.936Z,20.50
2019-02-21T13:43:19.339Z,20.62
2019-02-21T13:45:49.079Z,21.33
2019-02-21T13:48:18.519Z,21.27
2019-02-21T13:50:47.955Z,21.17
2019-02-21T13:53:17.432Z,22.42
2019-02-21T13:55:46.866Z,21.73
2019-02-21T13:58:16.339Z,21.90
2019-02-21T14:00:45.820Z,22.87
2019-02-21T14:03:15.240Z,22.20
2019-02-21T14:05:44.684Z,21.02
2019-02-21T14:08:14.135Z,23.07
2019-02-21T14:10:43.566Z,22.13
2019-02-21T14:13:13.048Z,22.17
2019-02-21T14:15:42.459Z,22.85
2019-02-21T14:18:11.905Z,24.55
2019-02-21T14:20:45.460Z,24.40
2019-02-21T14:23:12.420Z,23.02
2019-02-21T14:25:41.838Z,22.45
2019-02-21T14:28:11.373Z,23.12
2019-02-21T14:30:40.826Z,25.30
2019-02-21T14:33:10.257Z,24.85
2019-02-21T14:35:39.725Z,24.98
2019-02-21T14:38:09.241Z,23.80
2019-02-21T14:40:38.668Z,24.02
2019-02-21T14:43:08.094Z,23.05
2019-02-21T14:45:37.579Z,25.15
2019-02-21T14:48:07.032Z,23.55
2019-02-21T14:50:36.520Z,23.18
2019-02-21T14:53:06.007Z,23.83
2019-02-21T14:55:35.437Z,24.15
2019-02-21T14:58:04.889Z,23.77
2019-02-21T15:00:34.333Z,23.70
2019-02-21T15:03:03.784Z,24.43
2019-02-21T15:05:33.216Z,23.20
2019-02-21T15:08:02.704Z,23.55
2019-02-21T15:10:32.123Z,23.90
2019-02-21T15:13:01.598Z,24.00
2019-02-21T15:15:31.146Z,26.12
2019-02-21T15:18:07.353Z,26.02
2019-02-21T15:20:36.714Z,26.05
2019-02-21T15:23:02.905Z,24.92
2019-02-21T15:25:35.223Z,23.85
2019-02-21T15:28:04.647Z,25.12
2019-02-21T15:30:34.239Z,25.50
2019-02-21T15:33:04.670Z,24.95
2019-02-21T15:35:34.152Z,25.00
2019-02-21T15:38:03.591Z,26.20
2019-02-21T15:40:33.058Z,24.63
2019-02-21T15:43:05.140Z,25.40
2019-02-21T15:45:33.535Z,23.40
2019-02-21T15:48:02.977Z,24.67
2019-02-21T15:50:32.556Z,25.35
2019-02-21T15:53:01.984Z,24.47
2019-02-21T15:55:32.267Z,25.88
2019-02-21T15:58:04.344Z,24.80
2019-02-21T16:00:32.847Z,26.23
2019-02-21T16:03:02.292Z,25.37
2019-02-21T16:05:31.722Z,25.45
2019-02-21T16:08:01.161Z,24.72
2019-02-21T16:10:30.578Z,25.60
2019-02-21T16:13:02.264Z,24.40
2019-02-21T16:15:31.048Z,25.08
2019-02-21T16:18:00.759Z,25.12
2019-02-21T16:20:30.206Z,23.77
2019-02-21T16:22:59.694Z,24.67
2019-02-21T16:25:33.401Z,25.30
2019-02-21T16:28:02.875Z,26.15
2019-02-21T16:30:32.306Z,25.45
2019-02-21T16:33:01.702Z,25.43
2019-02-21T16:35:31.254Z,28.27
2019-02-21T16:38:00.652Z,24.82
2019-02-21T16:40:36.491Z,25.82
2019-02-21T16:43:07.014Z,25.10
2019-02-21T16:45:43.777Z,25.32
2019-02-21T16:48:07.633Z,24.75
2019-02-21T16:50:37.091Z,25.65
2019-02-21T16:53:06.525Z,26.07
2019-02-21T16:55:36.252Z,25.37
2019-02-21T16:58:05.826Z,27.32
2019-02-21T17:00:49.869Z,25.00
2019-02-21T17:03:07.928Z,26.45
2019-02-21T17:05:37.356Z,27.07
2019-02-21T17:08:06.844Z,26.37
2019-02-21T17:10:37.303Z,26.42
2019-02-21T17:13:06.746Z,26.57
2019-02-21T17:15:36.180Z,26.87
2019-02-21T17:18:06.103Z,25.92
2019-02-21T17:20:35.758Z,28.00
2019-02-21T17:23:05.219Z,27.22
2019-02-21T17:25:34.811Z,27.77
2019-02-21T17:28:04.230Z,28.40
2019-02-21T17:30:33.678Z,28.17
2019-02-21T17:33:03.194Z,27.10
2019-02-21T17:35:32.575Z,28.00
2019-02-21T17:38:02.018Z,27.62
2019-02-21T17:40:31.434Z,26.40
2019-02-21T17:43:00.900Z,28.80
2019-02-21T17:45:31.248Z,26.48
2019-02-21T17:48:00.687Z,30.88
2019-02-21T17:50:30.127Z,26.33
2019-02-21T17:52:59.584Z,26.27
2019-02-21T17:55:29.001Z,26.35
2019-02-21T17:57:58.438Z,26.05
2019-02-21T18:00:32.207Z,26.50
2019-02-21T18:03:01.640Z,27.62
2019-02-21T18:05:31.278Z,28.00
2019-02-21T18:08:00.707Z,26.55
2019-02-21T18:10:30.122Z,27.50
2019-02-21T18:12:59.600Z,33.33
2019-02-21T18:15:28.971Z,27.32
2019-02-21T18:17:58.375Z,30.08
2019-02-21T18:20:27.873Z,27.93
2019-02-21T18:22:57.278Z,26.93
2019-02-21T18:25:32.824Z,26.60
2019-02-21T18:28:02.255Z,26.75
2019-02-21T18:30:31.675Z,28.07
2019-02-21T18:33:01.136Z,33.18
2019-02-21T18:35:30.550Z,30.90
2019-02-21T18:37:59.966Z,27.27
2019-02-21T18:40:29.403Z,27.35
2019-02-21T18:42:58.839Z,26.90
2019-02-21T18:45:28.280Z,27.10
2019-02-21T18:47:57.758Z,26.85
2019-02-21T18:50:37.368Z,26.75
2019-02-21T18:52:58.267Z,26.68
2019-02-21T18:55:27.709Z,27.75
2019-02-21T18:57:57.138Z,28.17
2019-02-21T19:00:27.154Z,28.23
2019-02-21T19:02:56.536Z,27.37
2019-02-21T19:05:35.350Z,27.22
2019-02-21T19:08:04.668Z,27.13
2019-02-21T19:10:28.220Z,33.05
2019-02-21T19:12:57.656Z,26.93
2019-02-21T19:15:27.713Z,29.52
2019-02-21T19:17:57.055Z,26.42
2019-02-21T19:20:26.499Z,28.05
2019-02-21T19:22:55.932Z,28.45
2019-02-21T19:25:25.386Z,27.55
2019-02-21T19:27:54.795Z,26.77
2019-02-21T19:30:45.532Z,27.62
2019-02-21T19:33:14.979Z,26.90
2019-02-21T19:35:44.451Z,27.37
2019-02-21T19:38:13.867Z,28.23
2019-02-21T19:40:43.296Z,28.70
2019-02-21T19:43:12.738Z,30.25
2019-02-21T19:45:42.144Z,28.45
2019-02-21T19:48:11.577Z,27.93
2019-02-21T19:50:41.011Z,27.48
2019-02-21T19:55:54.454Z,28.30
2019-02-21T19:58:24.983Z,28.83
2019-02-21T20:00:54.694Z,28.60
2019-02-21T20:03:24.137Z,28.60
2019-02-21T20:05:54.243Z,28.50
2019-02-21T20:08:23.701Z,28.17
2019-02-21T20:10:53.112Z,29.40
2019-02-21T20:13:22.527Z,28.30
2019-02-21T20:15:52.043Z,29.20
2019-02-21T20:18:21.476Z,28.65
2019-02-21T20:20:50.983Z,28.32
2019-02-21T20:23:20.356Z,28.17
2019-02-21T20:25:49.806Z,29.00
2019-02-21T20:28:19.247Z,26.62
2019-02-21T20:30:48.680Z,27.02
2019-02-21T20:33:18.106Z,25.10
2019-02-21T20:35:47.540Z,26.45
2019-02-21T20:38:16.951Z,25.85
2019-02-21T20:40:46.446Z,24.47
2019-02-21T20:43:15.899Z,24.52
2019-02-21T20:45:53.204Z,24.60
2019-02-21T20:48:16.418Z,24.45
2019-02-21T20:50:56.136Z,24.02
2019-02-21T20:53:16.939Z,24.55
2019-02-21T20:55:46.368Z,24.55
2019-02-21T20:58:15.830Z,25.62
2019-02-21T21:00:45.265Z,25.68
2019-02-21T21:03:14.739Z,24.27
2019-02-21T21:05:44.194Z,23.87
2019-02-21T21:08:15.258Z,26.70
2019-02-21T21:10:44.724Z,25.05
2019-02-21T21:13:14.167Z,24.72
2019-02-21T21:15:43.608Z,24.90
2019-02-21T21:18:13.072Z,24.75
2019-02-21T21:20:42.507Z,24.35
2019-02-21T21:23:11.952Z,23.95
2019-02-21T21:25:41.441Z,25.90
2019-02-21T21:28:10.865Z,25.15
2019-02-21T21:30:40.359Z,24.80
2019-02-21T21:33:09.805Z,24.23
2019-02-21T21:35:39.234Z,22.27
2019-02-21T21:38:08.676Z,23.92
2019-02-21T21:40:38.096Z,23.45
2019-02-21T21:43:07.535Z,24.07
2019-02-21T21:45:36.979Z,23.40
2019-02-21T21:48:06.410Z,23.42
2019-02-21T21:50:35.879Z,24.32
2019-02-21T21:53:05.330Z,25.75
2019-02-21T21:55:34.763Z,25.32
2019-02-21T21:58:04.211Z,23.90
2019-02-21T22:00:33.627Z,22.15
2019-02-21T22:03:03.046Z,22.17
2019-02-21T22:05:32.491Z,20.57
2019-02-21T22:08:01.937Z,19.70
2019-02-21T22:10:31.334Z,21.05
2019-02-21T22:13:02.871Z,19.95
2019-02-21T22:15:32.355Z,19.75
2019-02-21T22:18:06.982Z,20.40
2019-02-21T22:20:40.462Z,18.42
2019-02-21T22:23:16.471Z,18.62
2019-02-21T22:25:45.920Z,18.30
2019-02-21T22:28:15.327Z,17.10
2019-02-21T22:30:44.795Z,16.87
2019-02-21T22:33:14.204Z,17.15
2019-02-21T22:35:43.639Z,17.25
2019-02-21T22:38:16.208Z,18.82
2019-02-21T22:40:45.601Z,16.97
2019-02-21T22:43:15.035Z,16.85
2019-02-21T22:45:44.499Z,16.00
2019-02-21T22:48:13.892Z,15.85
2019-02-21T22:50:43.371Z,15.83
2019-02-21T22:53:12.776Z,18.52
2019-02-21T22:55:42.266Z,13.88
2019-02-21T22:58:11.706Z,17.57
2019-02-21T23:01:04.199Z,23.07
2019-02-21T23:03:39.589Z,16.73
2019-02-21T23:06:20.858Z,16.07
2019-02-21T23:08:52.633Z,16.23
2019-02-21T23:11:23.067Z,16.87
2019-02-21T23:13:52.559Z,16.45
2019-02-21T23:16:22.002Z,15.85
2019-02-21T23:18:51.419Z,16.75
2019-02-21T23:21:20.893Z,17.42
2019-02-21T23:23:50.311Z,17.07
2019-02-21T23:26:19.734Z,16.42
2019-02-21T23:28:49.181Z,17.67
2019-02-21T23:31:18.595Z,17.27
2019-02-21T23:33:55.366Z,18.10
2019-02-21T23:36:24.779Z,17.82
2019-02-21T23:38:54.264Z,18.20
2019-02-21T23:41:23.711Z,18.65
2019-02-21T23:43:53.186Z,18.73
2019-02-21T23:46:22.611Z,17.23
2019-02-21T23:48:52.074Z,17.40
2019-02-21T23:51:21.524Z,17.40
2019-02-21T23:53:50.938Z,18.10
2019-02-21T23:56:20.383Z,18.35
2019-02-21T23:58:49.841Z,18.00
